Time;durP1;ratioP1;P1;durP2;ratioP2;P2;SDS_P1;SDS_P2;PMS_P1;PMS_P2;Temp;Humidity;BMP_temperature;BMP_pressure;BME280_temperature;BME280_humidity;BME280_pressure;Samples;Min_cycle;Max_cycle;Signal;HPM_P1;HPM_P2
2022/03/18 00:02:22;;;;;;;;;;;21.60;38.10;;;;;;5073773;28;20304;-41
2022/03/18 00:04:49;;;;;;;;;;;21.60;38.10;;;;;;5074770;28;19967;-41
2022/03/18 00:07:17;;;;;;;;;;;21.60;38.20;;;;;;5074695;28;19925;-40
2022/03/18 00:09:44;;;;;;;;;;;21.60;38.20;;;;;;5074236;28;19931;-44
2022/03/18 00:12:11;;;;;;;;;;;21.60;38.20;;;;;;5074592;28;19964;-40
2022/03/18 00:14:41;;;;;;;;;;;21.60;38.20;;;;;;5073511;28;20014;-41
2022/03/18 00:17:09;;;;;;;;;;;21.60;38.20;;;;;;5074089;28;19925;-41
2022/03/18 00:19:37;;;;;;;;;;;21.50;38.20;;;;;;5055163;28;19963;-42
2022/03/18 00:22:04;;;;;;;;;;;21.50;38.20;;;;;;5053872;28;20299;-42
2022/03/18 00:24:32;;;;;;;;;;;21.50;38.20;;;;;;5054145;28;20625;-44
2022/03/18 00:26:59;;;;;;;;;;;21.50;38.20;;;;;;5053788;28;20406;-42
2022/03/18 00:29:26;;;;;;;;;;;21.50;38.20;;;;;;5063674;28;19938;-41
2022/03/18 00:31:53;;;;;;;;;;;21.50;38.20;;;;;;5074001;28;20379;-41
2022/03/18 00:34:20;;;;;;;;;;;21.50;38.20;;;;;;5073426;28;19924;-41
2022/03/18 00:36:47;;;;;;;;;;;21.50;38.20;;;;;;5074206;28;20347;-42
2022/03/18 00:39:14;;;;;;;;;;;21.50;38.20;;;;;;5073812;28;19978;-42
2022/03/18 00:41:41;;;;;;;;;;;21.50;38.20;;;;;;5073734;28;19974;-42
2022/03/18 00:44:08;;;;;;;;;;;21.50;38.30;;;;;;5073024;28;19925;-42
2022/03/18 00:46:35;;;;;;;;;;;21.50;38.30;;;;;;5073947;28;19967;-39
2022/03/18 00:52:04;;;;;;;;;;;21.50;38.40;;;;;;5073893;28;19924;-41
2022/03/18 00:54:32;;;;;;;;;;;21.50;38.40;;;;;;5073700;28;20433;-39
2022/03/18 00:57:00;;;;;;;;;;;21.50;38.40;;;;;;5073479;28;20074;-40
2022/03/18 00:59:28;;;;;;;;;;;21.50;38.40;;;;;;5065121;28;19964;-42
2022/03/18 01:01:56;;;;;;;;;;;21.50;38.40;;;;;;5053369;28;19925;-42
2022/03/18 01:04:24;;;;;;;;;;;21.50;38.40;;;;;;5065665;28;20391;-40
2022/03/18 01:06:55;;;;;;;;;;;21.50;38.40;;;;;;5073967;28;20277;-40
2022/03/18 01:09:23;;;;;;;;;;;21.50;38.40;;;;;;5073966;28;19978;-42
2022/03/18 01:11:51;;;;;;;;;;;21.50;39.00;;;;;;5073972;28;20303;-40
2022/03/18 01:14:19;;;;;;;;;;;21.50;38.40;;;;;;5072958;28;19931;-40
2022/03/18 01:16:47;;;;;;;;;;;21.50;38.40;;;;;;5073456;28;19968;-38
2022/03/18 01:19:14;;;;;;;;;;;21.50;38.40;;;;;;5072675;28;20338;-42
2022/03/18 01:21:43;;;;;;;;;;;21.50;38.40;;;;;;5073122;28;19960;-40
2022/03/18 01:24:10;;;;;;;;;;;21.50;38.40;;;;;;5073807;28;20346;-42
2022/03/18 01:26:38;;;;;;;;;;;21.50;38.40;;;;;;5073648;28;19929;-40
2022/03/18 01:29:04;;;;;;;;;;;21.50;38.50;;;;;;5073046;28;19924;-41
2022/03/18 01:31:32;;;;;;;;;;;21.50;38.50;;;;;;5073113;28;19928;-45
2022/03/18 01:33:59;;;;;;;;;;;21.50;38.50;;;;;;5072840;28;19963;-42
2022/03/18 01:36:26;;;;;;;;;;;21.40;38.40;;;;;;5073307;28;20015;-41
2022/03/18 01:38:54;;;;;;;;;;;21.40;38.40;;;;;;5074728;28;19924;-42
2022/03/18 01:41:21;;;;;;;;;;;21.40;38.40;;;;;;5077234;28;19963;-43
2022/03/18 01:43:48;;;;;;;;;;;21.50;38.50;;;;;;5077320;28;20356;-47
2022/03/18 01:46:16;;;;;;;;;;;21.50;38.60;;;;;;5076104;28;20388;-49
2022/03/18 01:48:43;;;;;;;;;;;21.40;38.50;;;;;;5076191;28;20015;-49
2022/03/18 01:51:15;;;;;;;;;;;21.50;38.60;;;;;;5076985;28;19924;-47
2022/03/18 01:53:44;;;;;;;;;;;21.50;38.60;;;;;;5076441;28;20015;-48
2022/03/18 01:56:11;;;;;;;;;;;21.40;38.50;;;;;;5076736;28;19964;-42
2022/03/18 01:58:38;;;;;;;;;;;21.40;38.50;;;;;;5076618;28;19925;-41
2022/03/18 02:01:05;;;;;;;;;;;21.40;38.50;;;;;;5076492;28;19924;-41
2022/03/18 02:03:33;;;;;;;;;;;21.40;38.50;;;;;;5076121;28;19924;-42
2022/03/18 02:06:01;;;;;;;;;;;21.40;38.60;;;;;;5056665;28;20331;-42
2022/03/18 02:08:28;;;;;;;;;;;21.40;38.60;;;;;;5056973;28;19978;-40
2022/03/18 02:10:56;;;;;;;;;;;21.40;38.60;;;;;;5056301;28;19929;-50
2022/03/18 02:13:23;;;;;;;;;;;21.40;38.60;;;;;;5056595;28;20367;-49
2022/03/18 02:15:49;;;;;;;;;;;21.40;38.50;;;;;;5067815;28;19924;-43
2022/03/18 02:18:16;;;;;;;;;;;21.40;38.60;;;;;;5076638;28;19924;-50
2022/03/18 02:20:43;;;;;;;;;;;21.40;38.60;;;;;;5075573;28;19990;-47
2022/03/18 02:23:10;;;;;;;;;;;21.40;38.60;;;;;;5076520;28;19928;-42
2022/03/18 02:25:37;;;;;;;;;;;21.40;38.60;;;;;;5076638;28;19978;-42
2022/03/18 02:28:04;;;;;;;;;;;21.40;38.60;;;;;;5059100;28;20338;-43
2022/03/18 02:30:34;;;;;;;;;;;21.40;38.60;;;;;;5075349;28;20384;-45
2022/03/18 02:33:02;;;;;;;;;;;21.40;38.60;;;;;;5076523;28;19934;-41
2022/03/18 02:35:30;;;;;;;;;;;21.40;38.70;;;;;;5075800;28;19935;-40
2022/03/18 02:37:58;;;;;;;;;;;21.40;38.70;;;;;;5076661;28;19963;-42
2022/03/18 02:40:25;;;;;;;;;;;21.40;38.70;;;;;;5076604;28;20291;-41
2022/03/18 02:42:53;;;;;;;;;;;21.40;38.70;;;;;;5076127;28;19968;-44
2022/03/18 02:45:20;;;;;;;;;;;21.40;38.70;;;;;;5075181;28;19924;-39
2022/03/18 02:47:47;;;;;;;;;;;21.40;38.70;;;;;;5075967;28;19945;-43
2022/03/18 02:50:15;;;;;;;;;;;21.40;38.70;;;;;;5074404;28;19925;-46
2022/03/18 02:52:44;;;;;;;;;;;21.40;38.70;;;;;;5075881;28;19946;-42
2022/03/18 02:55:11;;;;;;;;;;;21.30;38.60;;;;;;5075354;28;19924;-41
2022/03/18 02:57:38;;;;;;;;;;;21.40;38.70;;;;;;5075748;28;19963;-41
2022/03/18 03:00:06;;;;;;;;;;;21.30;38.70;;;;;;5074858;28;19924;-41
2022/03/18 03:02:33;;;;;;;;;;;21.30;38.70;;;;;;5075477;28;20038;-42
2022/03/18 03:08:01;;;;;;;;;;;21.30;38.70;;;;;;5075947;28;20356;-42
2022/03/18 03:10:29;;;;;;;;;;;21.40;38.80;;;;;;5075609;28;19932;-42
2022/03/18 03:13:01;;;;;;;;;;;21.30;38.70;;;;;;5075534;28;20384;-41
2022/03/18 03:15:28;;;;;;;;;;;21.30;38.70;;;;;;5074701;28;19938;-42
2022/03/18 03:17:55;;;;;;;;;;;21.30;38.70;;;;;;5075289;28;19990;-45
2022/03/18 03:20:22;;;;;;;;;;;21.30;38.70;;;;;;5074576;28;20340;-41
2022/03/18 03:22:49;;;;;;;;;;;21.30;38.70;;;;;;5075538;28;20015;-42
2022/03/18 03:25:16;;;;;;;;;;;21.30;38.80;;;;;;5057555;28;19925;-41
2022/03/18 03:27:43;;;;;;;;;;;21.30;38.70;;;;;;5075290;28;20018;-42
2022/03/18 03:30:11;;;;;;;;;;;21.30;38.70;;;;;;5075610;28;19956;-43
2022/03/18 03:32:38;;;;;;;;;;;21.30;38.70;;;;;;5074828;28;19924;-42
2022/03/18 03:35:05;;;;;;;;;;;21.30;38.80;;;;;;5074681;28;20288;-46
2022/03/18 03:37:32;;;;;;;;;;;21.30;38.80;;;;;;5075013;28;19936;-43
2022/03/18 03:40:00;;;;;;;;;;;21.30;38.80;;;;;;5075099;28;19925;-40
2022/03/18 03:42:26;;;;;;;;;;;21.30;38.80;;;;;;5057175;28;20376;-43
2022/03/18 03:44:54;;;;;;;;;;;21.30;38.80;;;;;;5075144;28;19987;-44
2022/03/18 03:47:21;;;;;;;;;;;21.30;38.80;;;;;;5058840;28;19967;-43
2022/03/18 03:49:48;;;;;;;;;;;21.30;38.80;;;;;;5055571;28;19924;-42
2022/03/18 03:52:14;;;;;;;;;;;21.30;38.80;;;;;;5074535;28;19925;-41
2022/03/18 03:54:42;;;;;;;;;;;21.30;38.80;;;;;;5075023;28;20135;-42
2022/03/18 03:57:08;;;;;;;;;;;21.30;38.90;;;;;;5074759;28;19960;-43
2022/03/18 03:59:35;;;;;;;;;;;21.30;38.80;;;;;;5075556;28;19925;-44
2022/03/18 04:02:03;;;;;;;;;;;21.30;38.90;;;;;;5055854;28;19928;-42
2022/03/18 04:04:32;;;;;;;;;;;21.30;38.90;;;;;;5074387;28;20399;-45
2022/03/18 04:06:59;;;;;;;;;;;21.30;38.90;;;;;;5074026;28;20362;-43
2022/03/18 04:09:26;;;;;;;;;;;21.30;38.80;;;;;;5073771;28;19971;-45
2022/03/18 04:11:53;;;;;;;;;;;21.30;38.80;;;;;;5073899;28;20023;-42
2022/03/18 04:14:20;;;;;;;;;;;21.30;38.80;;;;;;5074071;28;19928;-49
2022/03/18 04:16:47;;;;;;;;;;;21.30;38.90;;;;;;5066122;28;19960;-43
2022/03/18 04:19:14;;;;;;;;;;;21.30;38.90;;;;;;5054420;28;19925;-42
2022/03/18 04:21:42;;;;;;;;;;;21.30;38.90;;;;;;5067398;28;20001;-42
2022/03/18 04:24:09;;;;;;;;;;;21.30;38.90;;;;;;5073840;28;20384;-46
2022/03/18 04:26:41;;;;;;;;;;;21.30;38.90;;;;;;5074133;28;19931;-49
2022/03/18 04:29:08;;;;;;;;;;;21.30;38.90;;;;;;5074377;28;19924;-51
2022/03/18 04:31:35;;;;;;;;;;;21.30;38.90;;;;;;5073488;28;19928;-51
2022/03/18 04:34:03;;;;;;;;;;;21.30;38.90;;;;;;5074013;28;19932;-51
2022/03/18 04:36:30;;;;;;;;;;;21.20;39.40;;;;;;5055925;28;19924;-45
2022/03/18 04:38:57;;;;;;;;;;;21.20;38.90;;;;;;5074018;28;20411;-50
2022/03/18 04:41:25;;;;;;;;;;;21.20;38.90;;;;;;5074295;28;19978;-46
2022/03/18 04:43:52;;;;;;;;;;;21.20;38.90;;;;;;5073891;28;19967;-42
2022/03/18 04:46:19;;;;;;;;;;;21.20;38.90;;;;;;5072994;28;19970;-50
2022/03/18 04:48:46;;;;;;;;;;;21.20;38.90;;;;;;5073585;28;19970;-45
2022/03/18 04:51:12;;;;;;;;;;;21.20;38.90;;;;;;5072825;28;20403;-48
2022/03/18 04:53:40;;;;;;;;;;;21.20;38.90;;;;;;5073662;28;19970;-42
2022/03/18 04:57:15;;;;;;;;;;;21.20;38.90;;;;;;5056044;28;20015;-48
2022/03/18 04:58:54;;;;;;;;;;;21.20;38.90;;;;;;5073437;28;19925;-51
2022/03/18 05:01:20;;;;;;;;;;;21.20;38.90;;;;;;5073288;28;20028;-41
2022/03/18 05:03:48;;;;;;;;;;;21.20;38.90;;;;;;5073409;28;19999;-50
2022/03/18 05:06:15;;;;;;;;;;;21.20;39.00;;;;;;5072726;28;19924;-49
2022/03/18 05:08:42;;;;;;;;;;;21.20;38.90;;;;;;5055722;28;19924;-49
2022/03/18 05:11:08;;;;;;;;;;;21.20;38.90;;;;;;5073483;28;20388;-47
2022/03/18 05:13:35;;;;;;;;;;;21.20;38.90;;;;;;5073433;28;19931;-43
2022/03/18 05:16:02;;;;;;;;;;;21.20;39.00;;;;;;5073436;28;19966;-48
2022/03/18 05:18:29;;;;;;;;;;;21.20;39.00;;;;;;5073107;28;19934;-40
2022/03/18 05:20:56;;;;;;;;;;;21.20;39.00;;;;;;5071968;28;19928;-45
2022/03/18 05:23:23;;;;;;;;;;;21.20;39.00;;;;;;5073633;28;20344;-42
2022/03/18 05:25:50;;;;;;;;;;;21.20;39.00;;;;;;5073526;28;19924;-41
2022/03/18 05:28:18;;;;;;;;;;;21.20;39.00;;;;;;5073691;28;20022;-42
2022/03/18 05:30:44;;;;;;;;;;;21.20;39.00;;;;;;5073553;28;20007;-41
2022/03/18 05:33:11;;;;;;;;;;;21.20;39.00;;;;;;5072271;28;20380;-39
2022/03/18 05:35:38;;;;;;;;;;;21.20;39.00;;;;;;5073263;28;19970;-43
2022/03/18 05:38:05;;;;;;;;;;;21.20;39.00;;;;;;5072673;28;20014;-40
2022/03/18 05:40:32;;;;;;;;;;;21.20;39.00;;;;;;5073303;28;19952;-48
2022/03/18 05:42:59;;;;;;;;;;;21.20;39.00;;;;;;5073362;28;19963;-42
2022/03/18 05:45:26;;;;;;;;;;;21.20;38.90;;;;;;5073309;28;20257;-50
2022/03/18 05:47:53;;;;;;;;;;;21.20;38.90;;;;;;5072193;28;19978;-48
2022/03/18 05:50:21;;;;;;;;;;;21.20;38.90;;;;;;5073300;28;19950;-39
2022/03/18 05:52:48;;;;;;;;;;;21.20;38.90;;;;;;5072573;28;20300;-42
2022/03/18 05:55:15;;;;;;;;;;;21.20;38.90;;;;;;5073550;28;19925;-42
2022/03/18 05:57:42;;;;;;;;;;;21.20;38.90;;;;;;5073176;28;19931;-42
2022/03/18 06:00:10;;;;;;;;;;;21.20;38.90;;;;;;5073246;28;19924;-42
2022/03/18 06:02:37;;;;;;;;;;;21.20;38.90;;;;;;5071731;28;19979;-41
2022/03/18 06:05:05;;;;;;;;;;;21.20;38.90;;;;;;5073259;28;20023;-42
2022/03/18 06:07:32;;;;;;;;;;;21.20;38.90;;;;;;5072406;28;19924;-40
2022/03/18 06:12:49;;;;;;;;;;;21.30;39.00;;;;;;5072947;28;19924;-43
2022/03/18 06:15:16;;;;;;;;;;;21.30;38.90;;;;;;5073505;28;19924;-43
2022/03/18 06:17:43;;;;;;;;;;;21.30;38.90;;;;;;5071746;28;20371;-44
2022/03/18 06:20:10;;;;;;;;;;;21.30;38.90;;;;;;5072551;28;19960;-43
2022/03/18 06:22:37;;;;;;;;;;;21.30;38.90;;;;;;5060653;28;19924;-43
2022/03/18 06:25:04;;;;;;;;;;;21.30;38.90;;;;;;5054245;28;19925;-45
2022/03/18 06:27:31;;;;;;;;;;;21.30;38.90;;;;;;5056569;28;19924;-41
2022/03/18 06:29:58;;;;;;;;;;;21.30;38.80;;;;;;5056127;28;19986;-42
2022/03/18 06:32:25;;;;;;;;;;;21.30;38.80;;;;;;5056301;28;19925;-41
2022/03/18 06:34:52;;;;;;;;;;;21.30;38.80;;;;;;5076516;28;19925;-39
2022/03/18 06:37:19;;;;;;;;;;;21.30;38.80;;;;;;5075580;28;19986;-43
2022/03/18 06:39:46;;;;;;;;;;;21.30;38.80;;;;;;5076257;28;20011;-41
2022/03/18 06:42:13;;;;;;;;;;;21.30;38.70;;;;;;5076927;28;19994;-40
2022/03/18 06:44:39;;;;;;;;;;;21.30;38.70;;;;;;5076109;28;20026;-40
2022/03/18 06:47:06;;;;;;;;;;;21.40;38.80;;;;;;5075583;28;19973;-42
2022/03/18 06:49:33;;;;;;;;;;;21.30;38.70;;;;;;5075611;28;19971;-40
2022/03/18 06:52:02;;;;;;;;;;;21.40;38.80;;;;;;5057371;28;20261;-45
2022/03/18 06:54:29;;;;;;;;;;;21.40;38.80;;;;;;5072454;28;19932;-42
2022/03/18 06:56:56;;;;;;;;;;;21.40;38.80;;;;;;5073491;28;20015;-43
2022/03/18 06:59:23;;;;;;;;;;;21.40;38.70;;;;;;5074777;28;19950;-44
2022/03/18 07:01:50;;;;;;;;;;;21.40;38.70;;;;;;5074390;28;19924;-45
2022/03/18 07:04:22;;;;;;;;;;;21.40;38.70;;;;;;5074277;28;19924;-44
2022/03/18 07:06:49;;;;;;;;;;;21.40;38.70;;;;;;5074160;28;19958;-40
2022/03/18 07:09:16;;;;;;;;;;;21.40;38.80;;;;;;5074760;28;20446;-40
2022/03/18 07:11:43;;;;;;;;;;;21.40;38.70;;;;;;5074527;28;19963;-40
2022/03/18 07:14:10;;;;;;;;;;;21.50;38.80;;;;;;5074933;28;19959;-41
2022/03/18 07:19:22;;;;;;;;;;;21.50;39.40;;;;;;5073565;28;19932;-44
2022/03/18 07:21:49;;;;;;;;;;;21.50;41.10;;;;;;5073812;28;19970;-40
2022/03/18 07:24:16;;;;;;;;;;;21.50;41.40;;;;;;5073215;28;20028;-43
2022/03/18 07:26:43;;;;;;;;;;;21.50;40.30;;;;;;5073680;28;19979;-44
2022/03/18 07:29:10;;;;;;;;;;;21.60;40.10;;;;;;5074473;28;20296;-41
2022/03/18 07:31:37;;;;;;;;;;;21.60;40.10;;;;;;5074252;28;19925;-44
2022/03/18 07:34:04;;;;;;;;;;;21.60;39.80;;;;;;5073056;28;20716;-42
2022/03/18 07:36:30;;;;;;;;;;;21.60;39.50;;;;;;5072838;28;19971;-42
2022/03/18 07:38:57;;;;;;;;;;;21.70;39.40;;;;;;5057430;28;20032;-43
2022/03/18 07:41:25;;;;;;;;;;;21.70;39.30;;;;;;5053775;28;20054;-45
2022/03/18 07:43:51;;;;;;;;;;;21.70;39.40;;;;;;5054059;28;20373;-48
2022/03/18 07:46:18;;;;;;;;;;;21.70;39.50;;;;;;5054194;28;20325;-47
2022/03/18 07:48:46;;;;;;;;;;;21.70;39.60;;;;;;5057622;28;19925;-45
2022/03/18 07:51:13;;;;;;;;;;;21.80;39.70;;;;;;5073602;28;19978;-48
2022/03/18 07:53:40;;;;;;;;;;;21.80;39.70;;;;;;5072782;28;19946;-51
2022/03/18 07:56:07;;;;;;;;;;;21.80;39.80;;;;;;5073906;28;19964;-45
2022/03/18 07:58:34;;;;;;;;;;;21.80;39.90;;;;;;5073716;28;19924;-47
2022/03/18 08:01:01;;;;;;;;;;;21.80;39.80;;;;;;5073620;28;19924;-45
2022/03/18 08:03:29;;;;;;;;;;;21.90;40.20;;;;;;5072950;28;19928;-46
2022/03/18 08:05:56;;;;;;;;;;;21.90;40.10;;;;;;5073674;28;20283;-46
2022/03/18 08:08:23;;;;;;;;;;;21.90;40.30;;;;;;5072722;28;19946;-46
2022/03/18 08:10:51;;;;;;;;;;;21.90;40.60;;;;;;5073477;28;19924;-41
2022/03/18 08:13:18;;;;;;;;;;;21.90;40.30;;;;;;5073444;28;19931;-41
2022/03/18 08:15:45;;;;;;;;;;;21.90;40.40;;;;;;5073613;28;20013;-43
2022/03/18 08:18:12;;;;;;;;;;;22.00;40.30;;;;;;5073385;28;19936;-43
2022/03/18 08:20:40;;;;;;;;;;;22.00;40.50;;;;;;5072252;28;19971;-41
2022/03/18 08:23:08;;;;;;;;;;;22.00;40.70;;;;;;5072688;28;19924;-41
2022/03/18 08:25:35;;;;;;;;;;;22.00;40.60;;;;;;5072991;28;19924;-40
2022/03/18 08:28:04;;;;;;;;;;;22.00;40.80;;;;;;5055515;28;20325;-42
2022/03/18 08:30:32;;;;;;;;;;;22.00;40.80;;;;;;5072700;28;20415;-41
2022/03/18 08:32:59;;;;;;;;;;;22.00;40.70;;;;;;5073046;28;19964;-43
2022/03/18 08:35:26;;;;;;;;;;;22.00;40.90;;;;;;5072163;28;20023;-42
2022/03/18 08:37:59;;;;;;;;;;;22.00;40.90;;;;;;5072264;28;19925;-42
2022/03/18 08:40:27;;;;;;;;;;;22.10;41.00;;;;;;5072697;28;20459;-43
2022/03/18 08:42:54;;;;;;;;;;;22.10;40.70;;;;;;5072213;28;19978;-42
2022/03/18 08:45:22;;;;;;;;;;;22.10;40.40;;;;;;5072382;28;19982;-41
2022/03/18 08:47:49;;;;;;;;;;;22.10;40.30;;;;;;5071955;28;20019;-42
2022/03/18 08:50:17;;;;;;;;;;;22.10;40.30;;;;;;5071697;28;19971;-47
2022/03/18 08:52:45;;;;;;;;;;;22.20;40.70;;;;;;5072780;28;19991;-42
2022/03/18 08:55:13;;;;;;;;;;;22.10;40.80;;;;;;5053488;28;20341;-43
2022/03/18 08:57:40;;;;;;;;;;;22.20;41.10;;;;;;5053180;28;19924;-47
2022/03/18 09:00:08;;;;;;;;;;;22.20;41.10;;;;;;5052679;28;20369;-43
2022/03/18 09:02:36;;;;;;;;;;;22.20;41.20;;;;;;5052567;28;19983;-45
2022/03/18 09:05:04;;;;;;;;;;;22.20;41.30;;;;;;5042196;28;20330;-47
2022/03/18 09:07:32;;;;;;;;;;;22.20;41.30;;;;;;5054732;28;19928;-47
2022/03/18 09:09:59;;;;;;;;;;;22.20;41.40;;;;;;5071633;28;19924;-44
2022/03/18 09:12:27;;;;;;;;;;;22.20;41.40;;;;;;5072493;28;20007;-43
2022/03/18 09:14:54;;;;;;;;;;;22.20;41.40;;;;;;5072274;28;19924;-44
2022/03/18 09:17:21;;;;;;;;;;;22.20;41.50;;;;;;5072302;28;19928;-48
2022/03/18 09:19:48;;;;;;;;;;;22.20;41.40;;;;;;5068199;28;19978;-43
2022/03/18 09:22:16;;;;;;;;;;;22.20;41.50;;;;;;5051888;28;19928;-41
2022/03/18 09:24:44;;;;;;;;;;;22.20;41.50;;;;;;5063963;28;19924;-41
2022/03/18 09:27:11;;;;;;;;;;;22.20;41.80;;;;;;5072525;28;20334;-40
2022/03/18 09:29:38;;;;;;;;;;;22.30;41.90;;;;;;5072166;28;19925;-41
2022/03/18 09:32:06;;;;;;;;;;;22.30;41.60;;;;;;5072248;28;19943;-43
2022/03/18 09:34:34;;;;;;;;;;;22.30;41.70;;;;;;5071716;28;19946;-45
2022/03/18 09:37:02;;;;;;;;;;;22.30;41.70;;;;;;5051496;28;19929;-40
2022/03/18 09:39:29;;;;;;;;;;;22.30;41.90;;;;;;5061112;28;20002;-42
2022/03/18 09:42:02;;;;;;;;;;;22.30;41.80;;;;;;5072159;28;20398;-41
2022/03/18 09:44:39;;;;;;;;;;;22.30;41.90;;;;;;5071910;28;19935;-43
2022/03/18 09:47:07;;;;;;;;;;;22.30;41.70;;;;;;5072272;28;19964;-43
2022/03/18 09:49:35;;;;;;;;;;;22.40;41.80;;;;;;5071971;28;20281;-44
2022/03/18 09:52:05;;;;;;;;;;;22.40;41.80;;;;;;5071434;28;20410;-42
2022/03/18 09:54:34;;;;;;;;;;;22.30;41.70;;;;;;5070442;28;20285;-45
2022/03/18 09:57:02;;;;;;;;;;;22.40;41.70;;;;;;5071747;28;19932;-45
2022/03/18 09:59:29;;;;;;;;;;;22.40;41.90;;;;;;5073111;28;19928;-43
2022/03/18 10:02:14;;;;;;;;;;;22.40;42.10;;;;;;5075985;28;20431;-44
2022/03/18 10:05:01;;;;;;;;;;;22.40;42.00;;;;;;5075649;28;20269;-45
2022/03/18 10:07:29;;;;;;;;;;;22.40;42.00;;;;;;5076124;28;20082;-41
2022/03/18 10:10:15;;;;;;;;;;;22.40;42.00;;;;;;5075155;28;19925;-47
2022/03/18 10:12:45;;;;;;;;;;;22.40;42.00;;;;;;5075607;28;19925;-44
2022/03/18 10:15:14;;;;;;;;;;;22.40;42.00;;;;;;5075680;28;19925;-42
2022/03/18 10:17:45;;;;;;;;;;;22.50;42.10;;;;;;5075519;28;20295;-43
2022/03/18 10:20:24;;;;;;;;;;;22.50;42.10;;;;;;5074381;28;20347;-44
2022/03/18 10:22:52;;;;;;;;;;;22.50;42.00;;;;;;5075423;28;19989;-43
2022/03/18 10:25:32;;;;;;;;;;;22.50;42.10;;;;;;5075093;28;19931;-44
2022/03/18 10:28:01;;;;;;;;;;;22.50;42.10;;;;;;5074122;28;20209;-47
2022/03/18 10:30:29;;;;;;;;;;;22.50;42.00;;;;;;5075332;28;19928;-41
2022/03/18 10:32:57;;;;;;;;;;;22.50;42.10;;;;;;5075119;28;19935;-43
2022/03/18 10:38:31;;;;;;;;;;;22.50;42.00;;;;;;5075451;28;19963;-41
2022/03/18 10:40:59;;;;;;;;;;;22.60;42.10;;;;;;5074043;28;19925;-44
2022/03/18 10:43:27;;;;;;;;;;;22.60;42.00;;;;;;5074787;28;20403;-41
2022/03/18 10:46:04;;;;;;;;;;;22.60;42.00;;;;;;5074907;28;19990;-40
2022/03/18 10:48:33;;;;;;;;;;;22.60;42.00;;;;;;5074776;28;19971;-41
2022/03/18 10:51:02;;;;;;;;;;;22.60;41.90;;;;;;5074222;28;19952;-41
2022/03/18 10:53:30;;;;;;;;;;;22.60;41.90;;;;;;5074551;28;19925;-43
2022/03/18 10:56:01;;;;;;;;;;;22.60;41.80;;;;;;5073778;28;19924;-50
2022/03/18 10:58:32;;;;;;;;;;;22.60;41.50;;;;;;5075204;28;19928;-52
2022/03/18 11:01:01;;;;;;;;;;;22.60;41.40;;;;;;5075751;28;19970;-49
2022/03/18 11:03:29;;;;;;;;;;;22.60;41.40;;;;;;5075987;28;20012;-46
2022/03/18 11:06:02;;;;;;;;;;;22.60;41.50;;;;;;5074724;28;19928;-46
2022/03/18 11:08:37;;;;;;;;;;;22.50;41.50;;;;;;5075752;28;19967;-52
2022/03/18 11:11:10;;;;;;;;;;;22.50;41.60;;;;;;5074937;28;19979;-48
2022/03/18 11:13:40;;;;;;;;;;;22.50;41.70;;;;;;5076045;28;20003;-47
2022/03/18 11:16:07;;;;;;;;;;;22.60;41.80;;;;;;5075334;28;19968;-52
2022/03/18 11:18:36;;;;;;;;;;;22.50;41.70;;;;;;5057812;28;19952;-48
2022/03/18 11:21:05;;;;;;;;;;;22.50;41.70;;;;;;5071037;28;19964;-49
2022/03/18 11:23:34;;;;;;;;;;;22.50;41.70;;;;;;5055646;28;19929;-45
2022/03/18 11:26:01;;;;;;;;;;;22.50;41.70;;;;;;5067191;28;19994;-41
2022/03/18 11:28:29;;;;;;;;;;;22.50;41.70;;;;;;5075692;28;19929;-48
2022/03/18 11:31:06;;;;;;;;;;;22.50;41.70;;;;;;5075367;28;20376;-50
2022/03/18 11:33:34;;;;;;;;;;;22.50;41.70;;;;;;5075342;28;19924;-43
2022/03/18 11:36:01;;;;;;;;;;;22.50;41.70;;;;;;5074439;28;19959;-43
2022/03/18 11:38:46;;;;;;;;;;;22.40;41.50;;;;;;5075304;28;19959;-46
2022/03/18 11:41:14;;;;;;;;;;;22.40;41.50;;;;;;5074606;28;19956;-46
2022/03/18 11:43:41;;;;;;;;;;;22.40;41.50;;;;;;5075100;28;19986;-46
2022/03/18 11:46:17;;;;;;;;;;;22.40;41.50;;;;;;5057038;28;20367;-50
2022/03/18 11:48:54;;;;;;;;;;;22.40;41.40;;;;;;5075539;28;20307;-49
2022/03/18 11:51:28;;;;;;;;;;;22.40;41.40;;;;;;5074192;28;19932;-43
2022/03/18 11:53:59;;;;;;;;;;;22.40;41.40;;;;;;5074940;28;19971;-50
2022/03/18 11:56:44;;;;;;;;;;;22.40;41.30;;;;;;5074121;28;19931;-44
2022/03/18 11:59:24;;;;;;;;;;;22.40;41.20;;;;;;5075019;28;20315;-44
2022/03/18 12:02:00;;;;;;;;;;;22.30;41.20;;;;;;5074701;28;19924;-40
2022/03/18 12:04:52;;;;;;;;;;;22.30;41.10;;;;;;5075039;28;20011;-44
2022/03/18 12:07:24;;;;;;;;;;;22.30;41.10;;;;;;5055551;28;19931;-42
2022/03/18 12:09:51;;;;;;;;;;;22.30;41.00;;;;;;5074706;28;19924;-41
2022/03/18 12:12:38;;;;;;;;;;;22.30;41.00;;;;;;5073233;28;19954;-39
2022/03/18 12:15:05;;;;;;;;;;;22.30;41.00;;;;;;5074511;28;20022;-40
2022/03/18 12:17:44;;;;;;;;;;;22.30;41.00;;;;;;5074389;28;20015;-40
2022/03/18 12:20:19;;;;;;;;;;;22.30;41.00;;;;;;5074230;28;20399;-46
2022/03/18 12:22:46;;;;;;;;;;;22.30;41.00;;;;;;5073091;28;19925;-40
2022/03/18 12:25:14;;;;;;;;;;;22.20;40.80;;;;;;5073918;28;19929;-49
2022/03/18 12:27:43;;;;;;;;;;;22.20;40.80;;;;;;5073986;28;19986;-45
2022/03/18 12:30:12;;;;;;;;;;;22.20;40.80;;;;;;5074141;28;20343;-43
2022/03/18 12:32:40;;;;;;;;;;;22.20;40.80;;;;;;5074026;28;19924;-45
2022/03/18 12:35:07;;;;;;;;;;;22.20;40.80;;;;;;5073997;28;19924;-43
2022/03/18 12:37:34;;;;;;;;;;;22.20;40.80;;;;;;5072695;28;19951;-47
2022/03/18 12:40:07;;;;;;;;;;;22.20;40.80;;;;;;5073935;28;19924;-44
2022/03/18 12:43:04;;;;;;;;;;;22.20;40.80;;;;;;5072964;28;20292;-45
2022/03/18 12:45:33;;;;;;;;;;;22.20;40.80;;;;;;5011839;28;19975;-43
2022/03/18 12:48:04;;;;;;;;;;;22.20;40.80;;;;;;5011910;28;20349;-43
2022/03/18 12:50:33;;;;;;;;;;;22.20;40.70;;;;;;5011962;28;19926;-43
2022/03/18 12:53:00;;;;;;;;;;;22.20;40.70;;;;;;5011103;28;20020;-40
2022/03/18 12:55:27;;;;;;;;;;;22.20;40.70;;;;;;5012073;28;19926;-42
2022/03/18 12:57:54;;;;;;;;;;;22.10;40.60;;;;;;4994989;28;19980;-45
2022/03/18 13:00:21;;;;;;;;;;;22.10;40.60;;;;;;5012059;28;19926;-43
2022/03/18 13:03:16;;;;;;;;;;;22.20;40.70;;;;;;5012108;28;19932;-41
2022/03/18 13:05:44;;;;;;;;;;;22.20;40.60;;;;;;5012007;28;20364;-41
2022/03/18 13:08:12;;;;;;;;;;;22.10;40.50;;;;;;5010532;28;19925;-42
2022/03/18 13:10:40;;;;;;;;;;;22.10;40.50;;;;;;5010871;28;19971;-45
2022/03/18 13:13:11;;;;;;;;;;;22.10;40.50;;;;;;5011452;28;19972;-46
2022/03/18 13:15:47;;;;;;;;;;;22.10;40.50;;;;;;5011876;28;20377;-41
2022/03/18 13:18:18;;;;;;;;;;;22.10;40.50;;;;;;5011965;28;19959;-42
2022/03/18 13:20:48;;;;;;;;;;;22.10;40.50;;;;;;5011494;28;19929;-42
2022/03/18 13:23:19;;;;;;;;;;;22.10;40.50;;;;;;5014040;28;19972;-40
2022/03/18 13:25:46;;;;;;;;;;;22.10;40.50;;;;;;5013814;28;19926;-44
2022/03/18 13:28:13;;;;;;;;;;;22.10;40.40;;;;;;5032521;28;20336;-41
2022/03/18 13:33:37;;;;;;;;;;;22.10;40.40;;;;;;5034303;28;19924;-43
2022/03/18 13:36:04;;;;;;;;;;;22.10;40.30;;;;;;5037591;28;19990;-41
2022/03/18 13:38:32;;;;;;;;;;;22.10;40.30;;;;;;5037039;28;19952;-43
2022/03/18 13:41:04;;;;;;;;;;;22.10;40.30;;;;;;5037479;28;19975;-41
2022/03/18 13:43:34;;;;;;;;;;;22.10;40.30;;;;;;5037472;28;20015;-41
2022/03/18 13:46:12;;;;;;;;;;;22.10;40.30;;;;;;5036835;28;19979;-45
2022/03/18 13:48:39;;;;;;;;;;;22.10;40.30;;;;;;5037283;28;19975;-42
2022/03/18 13:51:07;;;;;;;;;;;22.10;40.30;;;;;;5037181;28;20012;-46
2022/03/18 13:53:35;;;;;;;;;;;22.10;40.30;;;;;;5036943;28;20496;-39
2022/03/18 13:56:15;;;;;;;;;;;22.10;40.30;;;;;;5037557;28;19925;-41
2022/03/18 13:58:43;;;;;;;;;;;22.10;40.30;;;;;;5037396;28;19925;-43
2022/03/18 14:01:18;;;;;;;;;;;22.10;40.30;;;;;;5037335;28;20332;-46
2022/03/18 14:03:49;;;;;;;;;;;22.10;40.30;;;;;;5037378;28;19932;-46
2022/03/18 14:06:16;;;;;;;;;;;22.10;40.20;;;;;;5036953;28;20288;-40
2022/03/18 14:08:43;;;;;;;;;;;22.10;40.80;;;;;;5036070;28;19932;-45
2022/03/18 14:14:17;;;;;;;;;;;22.10;40.20;;;;;;5017071;28;19925;-48
2022/03/18 14:17:03;;;;;;;;;;;22.10;40.20;;;;;;5017136;28;19926;-47
2022/03/18 14:19:44;;;;;;;;;;;22.10;40.20;;;;;;5016910;28;19932;-48
2022/03/18 14:22:29;;;;;;;;;;;22.10;40.20;;;;;;5052458;28;20326;-49
2022/03/18 14:24:57;;;;;;;;;;;22.10;40.30;;;;;;5073914;28;19925;-49
2022/03/18 14:27:24;;;;;;;;;;;22.10;40.30;;;;;;5075405;28;19971;-45
2022/03/18 14:29:51;;;;;;;;;;;22.10;40.20;;;;;;5076453;28;19928;-50
2022/03/18 14:32:18;;;;;;;;;;;22.10;40.20;;;;;;5076393;28;19928;-46
2022/03/18 14:34:48;;;;;;;;;;;22.10;40.20;;;;;;5076749;28;19982;-50
2022/03/18 14:37:16;;;;;;;;;;;22.10;40.90;;;;;;5076311;28;20015;-52
2022/03/18 14:39:44;;;;;;;;;;;22.10;40.20;;;;;;5075420;28;19925;-51
2022/03/18 14:42:11;;;;;;;;;;;22.10;40.20;;;;;;5075468;28;20376;-46
2022/03/18 14:44:41;;;;;;;;;;;22.10;40.20;;;;;;5076566;28;20322;-52
2022/03/18 14:47:10;;;;;;;;;;;22.10;40.20;;;;;;5075412;28;19928;-45